createdAt,value
2022-12-14T00:01:54.374Z,60.90
2022-12-14T00:06:56.147Z,47.90
2022-12-14T00:11:58.808Z,70.40
2022-12-14T00:17:00.681Z,56.30
2022-12-14T00:22:02.432Z,59.50
2022-12-14T00:27:04.277Z,66.70
2022-12-14T00:32:06.450Z,63.80
2022-12-14T00:37:11.170Z,76.50
2022-12-14T00:42:12.910Z,58.40
2022-12-14T00:47:14.754Z,66.40
2022-12-14T00:52:16.515Z,68.90
2022-12-14T00:57:18.287Z,72.80
2022-12-14T01:02:20.187Z,74.90
2022-12-14T01:07:22.081Z,72.90
2022-12-14T01:12:23.881Z,82.40
2022-12-14T01:17:25.611Z,88.90
2022-12-14T01:22:27.461Z,71.80
2022-12-14T01:27:29.421Z,69.10
2022-12-14T01:32:31.255Z,60.50
2022-12-14T01:37:33.002Z,66.00
2022-12-14T01:42:36.546Z,47.50
2022-12-14T01:47:43.185Z,45.90
2022-12-14T01:52:47.861Z,43.80
2022-12-14T01:58:15.401Z,49.20
2022-12-14T02:03:38.228Z,46.10
2022-12-14T02:08:43.440Z,52.60
2022-12-14T02:13:45.260Z,45.30
2022-12-14T02:18:50.746Z,41.70
2022-12-14T02:24:20.078Z,41.90
2022-12-14T02:29:43.491Z,45.90
2022-12-14T02:35:18.804Z,38.20
2022-12-14T02:40:32.652Z,35.10
2022-12-14T02:46:03.446Z,37.60
2022-12-14T02:51:49.932Z,43.70
2022-12-14T02:56:59.689Z,33.40
2022-12-14T03:02:03.703Z,34.80
2022-12-14T03:07:34.208Z,43.00
2022-12-14T03:12:40.367Z,39.80
2022-12-14T03:17:46.551Z,43.40
2022-12-14T03:22:59.022Z,45.80
2022-12-14T03:28:14.443Z,30.60
2022-12-14T03:33:20.187Z,33.20
2022-12-14T03:38:37.939Z,43.00
2022-12-14T03:44:17.367Z,40.00
2022-12-14T03:49:32.824Z,39.90
2022-12-14T03:54:53.724Z,32.90
2022-12-14T04:00:13.087Z,32.90
2022-12-14T04:05:30.291Z,31.40
2022-12-14T04:10:58.818Z,30.90
2022-12-14T04:16:25.851Z,30.00
2022-12-14T04:21:40.101Z,27.30
2022-12-14T04:26:54.673Z,26.70
2022-12-14T04:32:25.845Z,31.50
2022-12-14T04:37:29.043Z,26.50
2022-12-14T04:42:41.616Z,22.20
2022-12-14T04:47:51.408Z,23.70
2022-12-14T04:53:01.782Z,24.40
2022-12-14T04:58:24.609Z,19.00
2022-12-14T05:03:32.244Z,26.40
2022-12-14T05:08:52.351Z,27.40
2022-12-14T05:18:55.789Z,21.20
2022-12-14T05:23:59.856Z,19.00
2022-12-14T05:29:01.690Z,16.30
2022-12-14T05:34:03.899Z,18.80
2022-12-14T05:39:06.073Z,18.60
2022-12-14T05:44:07.865Z,24.30
2022-12-14T05:49:09.981Z,23.40
2022-12-14T05:54:11.859Z,23.70
2022-12-14T05:59:15.852Z,23.70
2022-12-14T06:04:18.850Z,29.40
2022-12-14T06:09:20.801Z,25.20
2022-12-14T06:14:24.499Z,28.10
2022-12-14T06:19:26.241Z,29.40
2022-12-14T06:24:28.083Z,26.20
2022-12-14T06:29:29.889Z,20.80
2022-12-14T06:34:35.353Z,25.00
2022-12-14T06:39:40.442Z,15.40
2022-12-14T06:44:42.254Z,28.50
2022-12-14T06:49:44.629Z,23.70
2022-12-14T06:54:47.113Z,20.80
2022-12-14T06:59:48.860Z,24.90
2022-12-14T07:04:50.627Z,19.00
2022-12-14T07:09:52.498Z,22.80
2022-12-14T07:14:55.313Z,20.70
2022-12-14T07:19:57.277Z,23.50
2022-12-14T07:24:59.138Z,19.20
2022-12-14T07:30:01.014Z,20.40
2022-12-14T07:35:02.844Z,17.20
2022-12-14T07:40:05.356Z,20.60
2022-12-14T07:45:07.506Z,19.10
2022-12-14T07:50:09.517Z,23.60
2022-12-14T07:55:11.431Z,18.20
2022-12-14T08:00:13.786Z,18.00
2022-12-14T08:05:16.376Z,21.80
2022-12-14T08:10:18.218Z,18.80
2022-12-14T08:15:19.985Z,17.60
2022-12-14T08:20:21.756Z,20.50
2022-12-14T08:25:23.563Z,17.50
2022-12-14T08:30:25.429Z,19.10
2022-12-14T08:35:27.259Z,23.10
2022-12-14T08:40:29.681Z,20.20
2022-12-14T08:45:31.785Z,23.10
2022-12-14T08:50:33.595Z,19.10
2022-12-14T08:55:38.795Z,18.80
2022-12-14T09:00:40.856Z,21.30
2022-12-14T09:05:42.668Z,20.10
2022-12-14T09:10:50.744Z,22.40
2022-12-14T09:16:18.095Z,24.30
2022-12-14T09:21:20.113Z,24.00
2022-12-14T09:26:25.260Z,25.40
2022-12-14T09:31:27.995Z,27.10
2022-12-14T09:36:29.967Z,31.30
2022-12-14T09:41:34.812Z,29.90
2022-12-14T09:46:52.580Z,23.00
2022-12-14T09:51:57.285Z,24.20
2022-12-14T09:57:04.752Z,25.20
2022-12-14T10:02:40.302Z,19.40
2022-12-14T10:07:51.537Z,19.30
2022-12-14T10:13:13.453Z,19.80
2022-12-14T10:19:00.606Z,17.40
2022-12-14T10:24:06.400Z,16.20
2022-12-14T10:29:14.500Z,15.00
2022-12-14T10:34:24.763Z,14.60
2022-12-14T10:39:40.118Z,13.20
2022-12-14T10:45:23.331Z,12.50
2022-12-14T10:50:32.622Z,12.80
2022-12-14T10:55:40.158Z,13.80
2022-12-14T11:00:42.160Z,10.60
2022-12-14T11:06:03.927Z,13.30
2022-12-14T11:11:18.644Z,15.80
2022-12-14T11:16:36.501Z,15.10
2022-12-14T11:21:39.200Z,15.00
2022-12-14T11:26:42.945Z,13.80
2022-12-14T11:31:47.874Z,12.10
2022-12-14T11:36:50.243Z,13.10
2022-12-14T11:42:02.075Z,12.60
2022-12-14T11:47:13.238Z,12.90
2022-12-14T11:52:18.336Z,10.90
2022-12-14T11:57:30.947Z,9.00
2022-12-14T12:02:38.336Z,10.60
2022-12-14T12:07:56.851Z,9.40
2022-12-14T12:13:01.480Z,8.90
2022-12-14T12:18:17.106Z,13.60
2022-12-14T12:23:27.569Z,13.10
2022-12-14T12:28:35.715Z,13.00
2022-12-14T12:33:46.672Z,9.20
2022-12-14T12:39:24.902Z,12.10
2022-12-14T12:45:08.201Z,11.30
2022-12-14T12:50:32.154Z,13.20
2022-12-14T12:56:08.544Z,11.90
2022-12-14T13:01:42.487Z,11.30
2022-12-14T13:06:55.760Z,11.50
2022-12-14T13:11:58.598Z,16.80
2022-12-14T13:17:05.371Z,11.90
2022-12-14T13:22:15.125Z,15.80
2022-12-14T13:27:44.434Z,13.50
2022-12-14T13:32:55.733Z,12.00
2022-12-14T13:38:12.871Z,12.10
2022-12-14T13:44:08.201Z,11.30
2022-12-14T13:49:21.852Z,15.60
2022-12-14T13:54:30.471Z,14.40
2022-12-14T13:59:45.924Z,11.90
2022-12-14T14:04:47.735Z,14.70
2022-12-14T14:09:55.915Z,15.10
2022-12-14T14:15:07.931Z,12.30
2022-12-14T14:20:47.040Z,15.10
2022-12-14T14:25:48.891Z,14.50
2022-12-14T14:30:54.690Z,12.80
2022-12-14T14:36:25.173Z,12.70
2022-12-14T14:41:40.709Z,13.80
2022-12-14T14:46:48.158Z,15.00
2022-12-14T14:51:50.264Z,9.50
2022-12-14T14:56:53.117Z,14.30
2022-12-14T15:02:00.904Z,16.80
2022-12-14T15:07:07.526Z,14.50
2022-12-14T15:12:34.834Z,16.30
2022-12-14T15:17:36.672Z,12.10
2022-12-14T15:22:43.394Z,12.10
2022-12-14T15:27:48.579Z,14.40
2022-12-14T15:33:21.104Z,14.70
2022-12-14T15:38:27.717Z,13.10
2022-12-14T15:43:30.709Z,12.50
2022-12-14T15:48:35.171Z,15.00
2022-12-14T15:53:53.523Z,11.20
2022-12-14T15:59:01.190Z,13.30
2022-12-14T16:04:09.778Z,12.90
2022-12-14T16:09:19.615Z,11.90
2022-12-14T16:14:30.252Z,14.10
2022-12-14T16:19:57.611Z,11.60
2022-12-14T16:25:07.897Z,13.70
2022-12-14T16:30:21.896Z,13.10
2022-12-14T16:35:26.404Z,13.50
2022-12-14T16:40:32.098Z,16.50
2022-12-14T16:45:43.298Z,13.30
2022-12-14T16:50:57.017Z,13.10
2022-12-14T16:56:19.498Z,11.60
2022-12-14T17:01:25.342Z,16.50
2022-12-14T17:06:36.688Z,12.90
2022-12-14T17:11:40.189Z,16.10
2022-12-14T17:16:43.079Z,14.00
2022-12-14T17:21:45.112Z,14.60
2022-12-14T17:26:48.071Z,13.20
2022-12-14T17:31:52.899Z,17.10
2022-12-14T17:36:57.090Z,15.90
2022-12-14T17:42:00.677Z,14.60
2022-12-14T17:47:02.714Z,13.20
2022-12-14T17:52:07.955Z,13.30
2022-12-14T17:57:23.117Z,14.10
2022-12-14T18:02:32.830Z,16.00
2022-12-14T18:07:35.007Z,13.50
2022-12-14T18:12:36.920Z,15.90
2022-12-14T18:17:38.948Z,18.60
2022-12-14T18:22:41.035Z,18.10
2022-12-14T18:27:43.033Z,17.60
2022-12-14T18:32:46.132Z,15.30
2022-12-14T18:37:51.688Z,14.00
2022-12-14T18:42:56.508Z,14.90
2022-12-14T18:47:59.815Z,16.60
2022-12-14T18:53:05.031Z,20.40
2022-12-14T18:58:09.959Z,19.50
2022-12-14T19:03:15.457Z,22.00
2022-12-14T19:08:18.104Z,20.30
2022-12-14T19:13:26.148Z,16.00
2022-12-14T19:18:30.881Z,18.60
2022-12-14T19:23:33.269Z,15.90
2022-12-14T19:28:35.745Z,15.60
2022-12-14T19:33:40.966Z,18.40
2022-12-14T19:38:42.980Z,18.50
2022-12-14T19:43:47.634Z,17.70
2022-12-14T19:48:51.467Z,20.10
2022-12-14T19:53:55.210Z,20.50
2022-12-14T19:59:03.691Z,21.50
2022-12-14T20:04:06.356Z,20.90
2022-12-14T20:09:08.856Z,16.50
2022-12-14T20:14:12.573Z,16.10
2022-12-14T20:19:16.485Z,18.00
2022-12-14T20:24:21.301Z,18.60
2022-12-14T20:29:24.765Z,16.90
2022-12-14T20:34:29.137Z,20.60
2022-12-14T20:39:31.196Z,21.70
2022-12-14T20:44:33.101Z,20.30
2022-12-14T20:49:35.023Z,23.70
2022-12-14T20:54:36.967Z,21.30
2022-12-14T20:59:38.813Z,23.80
2022-12-14T21:04:40.576Z,29.20
2022-12-14T21:09:42.280Z,30.40
2022-12-14T21:14:48.105Z,25.40
2022-12-14T21:19:50.891Z,31.10
2022-12-14T21:25:08.259Z,37.40
2022-12-14T21:30:11.495Z,34.80
2022-12-14T21:35:17.807Z,38.80
2022-12-14T21:40:39.589Z,35.50
2022-12-14T21:45:41.528Z,43.30
2022-12-14T21:50:45.260Z,40.30
2022-12-14T21:55:51.669Z,45.80
2022-12-14T22:00:53.470Z,45.10
2022-12-14T22:05:55.258Z,46.80
2022-12-14T22:11:02.496Z,39.50
2022-12-14T22:16:07.623Z,46.40
2022-12-14T22:21:10.044Z,37.00
2022-12-14T22:26:11.906Z,45.10
2022-12-14T22:31:13.956Z,33.10
2022-12-14T22:36:16.244Z,42.20
2022-12-14T22:41:20.194Z,44.60
2022-12-14T22:46:23.543Z,35.70
2022-12-14T22:51:26.122Z,39.20
2022-12-14T22:56:34.203Z,41.20
2022-12-14T23:01:37.589Z,45.80
2022-12-14T23:06:40.969Z,45.50
2022-12-14T23:12:01.490Z,46.10
2022-12-14T23:17:22.502Z,44.20
2022-12-14T23:22:42.967Z,36.80
2022-12-14T23:28:03.527Z,38.30
2022-12-14T23:33:23.973Z,35.60
2022-12-14T23:38:44.623Z,34.60
2022-12-14T23:44:05.232Z,32.10
2022-12-14T23:49:25.981Z,32.40
2022-12-14T23:54:46.456Z,34.30
